createdAt,value
2023-03-13T00:01:42.464Z,100.00
2023-03-13T00:04:10.794Z,100.00
2023-03-13T00:06:40.451Z,100.00
2023-03-13T00:09:11.622Z,100.00
2023-03-13T00:11:40.046Z,100.00
2023-03-13T00:14:08.711Z,100.00
2023-03-13T00:16:40.216Z,100.00
2023-03-13T00:19:09.537Z,100.00
2023-03-13T00:21:41.611Z,100.00
2023-03-13T00:24:11.483Z,100.00
2023-03-13T00:26:39.659Z,100.00
2023-03-13T00:29:07.993Z,100.00
2023-03-13T00:31:36.434Z,100.00
2023-03-13T00:34:05.358Z,100.00
2023-03-13T00:36:35.494Z,100.00
2023-03-13T00:39:05.910Z,100.00
2023-03-13T00:41:37.493Z,100.00
2023-03-13T00:44:06.929Z,100.00
2023-03-13T00:46:35.913Z,100.00
2023-03-13T00:49:04.721Z,100.00
2023-03-13T00:51:35.915Z,100.00
2023-03-13T00:54:05.121Z,100.00
2023-03-13T00:56:34.813Z,100.00
2023-03-13T00:59:03.476Z,100.00
2023-03-13T01:01:35.371Z,100.00
2023-03-13T01:04:11.925Z,100.00
2023-03-13T01:06:43.302Z,100.00
2023-03-13T01:09:17.441Z,100.00
2023-03-13T01:11:47.024Z,100.00
2023-03-13T01:14:17.970Z,100.00
2023-03-13T01:16:46.651Z,100.00
2023-03-13T01:19:16.524Z,100.00
2023-03-13T01:21:46.947Z,100.00
2023-03-13T01:24:15.450Z,100.00
2023-03-13T01:26:45.127Z,100.00
2023-03-13T01:29:14.131Z,100.00
2023-03-13T01:31:42.630Z,100.00
2023-03-13T01:34:11.890Z,100.00
2023-03-13T01:36:40.219Z,100.00
2023-03-13T01:39:08.637Z,100.00
2023-03-13T01:41:37.731Z,100.00
2023-03-13T01:44:06.075Z,100.00
2023-03-13T01:46:37.062Z,100.00
2023-03-13T01:49:25.326Z,100.00
2023-03-13T01:52:08.853Z,100.00
2023-03-13T01:54:44.988Z,100.00
2023-03-13T01:57:24.667Z,100.00
2023-03-13T02:00:02.140Z,100.00
2023-03-13T02:02:44.901Z,100.00
2023-03-13T02:05:15.293Z,100.00
2023-03-13T02:07:51.034Z,100.00
2023-03-13T02:10:22.329Z,100.00
2023-03-13T02:12:52.211Z,100.00
2023-03-13T02:15:22.962Z,100.00
2023-03-13T02:17:51.831Z,100.00
2023-03-13T02:20:22.458Z,100.00
2023-03-13T02:23:10.825Z,100.00
2023-03-13T02:25:44.340Z,100.00
2023-03-13T02:28:16.529Z,100.00
2023-03-13T02:30:45.784Z,100.00
2023-03-13T02:33:15.710Z,100.00
2023-03-13T02:35:45.836Z,100.00
2023-03-13T02:38:26.957Z,100.00
2023-03-13T02:40:57.029Z,100.00
2023-03-13T02:43:31.222Z,100.00
2023-03-13T02:46:09.886Z,100.00
2023-03-13T02:48:47.512Z,100.00
2023-03-13T02:51:39.328Z,100.00
2023-03-13T02:54:14.584Z,100.00
2023-03-13T02:56:48.414Z,100.00
2023-03-13T02:59:17.398Z,100.00
2023-03-13T03:01:46.382Z,100.00
2023-03-13T03:04:14.538Z,100.00
2023-03-13T03:06:42.608Z,100.00
2023-03-13T03:09:11.049Z,100.00
2023-03-13T03:11:39.542Z,100.00
2023-03-13T03:14:11.977Z,100.00
2023-03-13T03:16:43.638Z,100.00
2023-03-13T03:19:11.962Z,100.00
2023-03-13T03:21:40.296Z,100.00
2023-03-13T03:24:08.925Z,100.00
2023-03-13T03:26:37.809Z,100.00
2023-03-13T03:29:11.244Z,100.00
2023-03-13T03:31:40.234Z,100.00
2023-03-13T03:34:08.537Z,100.00
2023-03-13T03:36:37.046Z,100.00
2023-03-13T03:39:05.522Z,100.00
2023-03-13T03:41:34.014Z,100.00
2023-03-13T03:44:02.381Z,100.00
2023-03-13T03:46:38.042Z,100.00
2023-03-13T03:49:06.222Z,100.00
2023-03-13T03:51:34.738Z,100.00
2023-03-13T03:54:03.165Z,100.00
2023-03-13T03:56:32.177Z,100.00
2023-03-13T03:59:00.848Z,100.00
2023-03-13T04:01:39.980Z,100.00
2023-03-13T04:04:08.309Z,100.00
2023-03-13T04:06:36.582Z,100.00
2023-03-13T04:09:06.328Z,100.00
2023-03-13T04:11:35.992Z,100.00
2023-03-13T04:14:05.089Z,100.00
2023-03-13T04:16:33.577Z,100.00
2023-03-13T04:19:02.226Z,100.00
2023-03-13T04:21:30.739Z,100.00
2023-03-13T04:24:06.406Z,100.00
2023-03-13T04:26:35.720Z,100.00
2023-03-13T04:29:06.507Z,100.00
2023-03-13T04:32:01.513Z,100.00
2023-03-13T04:34:32.472Z,100.00
2023-03-13T04:37:03.081Z,100.00
2023-03-13T04:39:41.908Z,100.00
2023-03-13T04:42:28.884Z,100.00
2023-03-13T04:45:16.543Z,100.00
2023-03-13T04:48:01.052Z,100.00
2023-03-13T04:50:29.146Z,100.00
2023-03-13T04:53:32.659Z,100.00
2023-03-13T04:56:41.539Z,100.00
2023-03-13T04:59:33.712Z,100.00
2023-03-13T05:02:02.066Z,100.00
2023-03-13T05:04:53.609Z,100.00
2023-03-13T05:07:29.581Z,100.00
2023-03-13T05:10:11.726Z,100.00
2023-03-13T05:13:05.013Z,100.00
2023-03-13T05:15:51.276Z,100.00
2023-03-13T05:18:36.402Z,100.00
2023-03-13T05:21:27.270Z,100.00
2023-03-13T05:24:16.029Z,100.00
2023-03-13T05:26:57.657Z,100.00
2023-03-13T05:29:44.311Z,100.00
2023-03-13T05:32:51.283Z,100.00
2023-03-13T05:35:40.699Z,100.00
2023-03-13T05:38:31.602Z,100.00
2023-03-13T05:41:26.372Z,100.00
2023-03-13T05:44:02.854Z,100.00
2023-03-13T05:46:37.348Z,100.00
2023-03-13T05:49:31.753Z,100.00
2023-03-13T05:52:12.683Z,100.00
2023-03-13T05:55:09.979Z,100.00
2023-03-13T05:58:01.169Z,100.00
2023-03-13T06:00:43.880Z,100.00
2023-03-13T06:03:32.327Z,100.00
2023-03-13T06:06:01.056Z,100.00
2023-03-13T06:08:38.225Z,100.00
2023-03-13T06:11:06.655Z,100.00
2023-03-13T06:13:35.741Z,100.00
2023-03-13T06:16:11.560Z,100.00
2023-03-13T06:18:46.390Z,100.00
2023-03-13T06:21:16.040Z,100.00
2023-03-13T06:23:44.665Z,100.00
2023-03-13T06:26:13.148Z,100.00
2023-03-13T06:28:41.750Z,100.00
2023-03-13T06:31:11.184Z,100.00
2023-03-13T06:33:39.577Z,100.00
2023-03-13T06:36:08.481Z,100.00
2023-03-13T06:38:36.855Z,100.00
2023-03-13T06:41:05.399Z,100.00
2023-03-13T06:43:34.339Z,100.00
2023-03-13T06:46:06.081Z,100.00
2023-03-13T06:48:35.087Z,100.00
2023-03-13T06:51:03.643Z,100.00
2023-03-13T06:53:32.250Z,100.00
2023-03-13T06:56:02.193Z,100.00
2023-03-13T06:58:32.952Z,100.00
2023-03-13T07:01:11.189Z,100.00
2023-03-13T07:03:41.720Z,100.00
2023-03-13T07:06:12.488Z,100.00
2023-03-13T07:08:41.454Z,100.00
2023-03-13T07:11:13.229Z,100.00
2023-03-13T07:13:42.794Z,100.00
2023-03-13T07:16:13.745Z,100.00
2023-03-13T07:18:42.739Z,100.00
2023-03-13T07:21:12.121Z,100.00
2023-03-13T07:23:40.686Z,100.00
2023-03-13T07:26:12.938Z,100.00
2023-03-13T07:28:42.140Z,100.00
2023-03-13T07:31:13.176Z,100.00
2023-03-13T07:33:42.378Z,100.00
2023-03-13T07:36:12.629Z,100.00
2023-03-13T07:38:41.542Z,100.00
2023-03-13T07:41:13.816Z,100.00
2023-03-13T07:43:42.584Z,100.00
2023-03-13T07:46:20.417Z,100.00
2023-03-13T07:48:49.766Z,100.00
2023-03-13T07:51:42.105Z,100.00
2023-03-13T07:54:12.292Z,100.00
2023-03-13T07:56:40.721Z,100.00
2023-03-13T07:59:09.911Z,100.00
2023-03-13T08:01:38.650Z,100.00
2023-03-13T08:04:07.685Z,100.00
2023-03-13T08:06:36.970Z,100.00
2023-03-13T08:09:06.560Z,100.00
2023-03-13T08:11:35.279Z,100.00
2023-03-13T08:14:03.912Z,100.00
2023-03-13T08:16:34.800Z,100.00
2023-03-13T08:19:06.199Z,100.00
2023-03-13T08:21:37.559Z,100.00
2023-03-13T08:24:08.460Z,100.00
2023-03-13T08:26:39.560Z,100.00
2023-03-13T08:29:11.223Z,100.00
2023-03-13T08:31:48.270Z,100.00
2023-03-13T08:34:18.610Z,100.00
2023-03-13T08:36:47.497Z,100.00
2023-03-13T08:39:21.049Z,100.00
2023-03-13T08:41:50.324Z,100.00
2023-03-13T08:44:23.156Z,100.00
2023-03-13T08:46:51.574Z,100.00
2023-03-13T08:49:20.129Z,100.00
2023-03-13T08:51:48.626Z,100.00
2023-03-13T08:54:17.076Z,100.00
2023-03-13T08:56:46.853Z,100.00
2023-03-13T08:59:18.516Z,100.00
2023-03-13T09:01:46.939Z,100.00
2023-03-13T09:04:15.895Z,100.00
2023-03-13T09:06:44.321Z,100.00
2023-03-13T09:09:14.522Z,100.00
2023-03-13T09:11:42.880Z,100.00
2023-03-13T09:14:11.634Z,100.00
2023-03-13T09:16:41.078Z,100.00
2023-03-13T09:19:09.963Z,100.00
2023-03-13T09:21:38.805Z,100.00
2023-03-13T09:24:08.717Z,100.00
2023-03-13T09:26:37.451Z,100.00
2023-03-13T09:29:05.911Z,100.00
2023-03-13T09:31:34.877Z,100.00
2023-03-13T09:34:04.787Z,100.00
2023-03-13T09:36:33.452Z,100.00
2023-03-13T09:39:02.770Z,100.00
2023-03-13T09:41:39.280Z,100.00
2023-03-13T09:44:10.809Z,100.00
2023-03-13T09:46:55.043Z,100.00
2023-03-13T09:49:45.714Z,99.81
2023-03-13T09:52:22.708Z,100.00
2023-03-13T09:55:05.070Z,100.00
2023-03-13T09:57:46.978Z,100.00
2023-03-13T10:00:27.645Z,99.91
2023-03-13T10:03:11.286Z,100.00
2023-03-13T10:06:18.643Z,99.62
2023-03-13T10:08:47.557Z,93.52
2023-03-13T10:11:30.187Z,91.54
2023-03-13T10:14:12.264Z,92.68
2023-03-13T10:16:56.836Z,92.03
2023-03-13T10:19:42.812Z,92.56
2023-03-13T10:22:26.529Z,86.36
2023-03-13T10:25:10.652Z,82.39
2023-03-13T10:27:51.926Z,84.54
2023-03-13T10:30:43.781Z,84.23
2023-03-13T10:33:12.100Z,74.41
2023-03-13T10:35:42.787Z,67.72
2023-03-13T10:38:15.778Z,65.51
2023-03-13T10:40:44.656Z,62.77
2023-03-13T10:43:22.482Z,60.63
2023-03-13T10:45:52.263Z,62.98
2023-03-13T10:48:23.946Z,61.38
2023-03-13T10:50:57.556Z,55.09
2023-03-13T10:53:29.955Z,51.28
2023-03-13T10:56:20.407Z,53.51
2023-03-13T10:58:51.393Z,51.81
2023-03-13T11:01:32.714Z,49.97
2023-03-13T11:04:39.581Z,48.25
2023-03-13T11:07:27.424Z,51.24
2023-03-13T11:10:19.135Z,48.86
2023-03-13T11:12:53.762Z,47.31
2023-03-13T11:15:35.611Z,47.29
2023-03-13T11:18:16.274Z,46.99
2023-03-13T11:20:47.055Z,46.77
2023-03-13T11:23:24.799Z,46.21
2023-03-13T11:26:12.024Z,48.66
2023-03-13T11:28:54.332Z,48.26
2023-03-13T11:31:33.630Z,46.84
2023-03-13T11:34:07.176Z,46.74
2023-03-13T11:36:39.226Z,47.26
2023-03-13T11:39:30.905Z,47.71
2023-03-13T11:42:14.874Z,49.50
2023-03-13T11:45:08.810Z,50.19
2023-03-13T11:48:08.398Z,49.68
2023-03-13T11:51:21.046Z,50.19
2023-03-13T11:53:58.618Z,48.62
2023-03-13T11:57:15.400Z,49.17
2023-03-13T11:59:59.551Z,47.20
2023-03-13T12:02:34.338Z,46.77
2023-03-13T12:05:11.632Z,48.68
2023-03-13T12:07:48.468Z,47.86
2023-03-13T12:10:41.457Z,47.75
2023-03-13T12:13:20.332Z,47.36
2023-03-13T12:15:54.583Z,47.42
2023-03-13T12:18:36.784Z,47.98
2023-03-13T12:21:14.657Z,47.91
2023-03-13T12:24:05.983Z,46.44
2023-03-13T12:26:51.872Z,46.06
2023-03-13T12:29:49.395Z,47.94
2023-03-13T12:32:46.370Z,47.19
2023-03-13T12:35:29.398Z,45.59
2023-03-13T12:38:04.028Z,45.11
2023-03-13T12:40:39.736Z,46.15
2023-03-13T12:43:18.948Z,46.49
2023-03-13T12:46:33.458Z,45.42
2023-03-13T12:49:26.389Z,46.50
2023-03-13T12:52:32.627Z,44.70
2023-03-13T12:55:49.550Z,44.38
2023-03-13T12:58:21.937Z,43.96
2023-03-13T13:00:51.982Z,43.74
2023-03-13T13:03:26.010Z,43.61
2023-03-13T13:06:13.234Z,45.04
2023-03-13T13:08:44.523Z,43.79
2023-03-13T13:11:37.862Z,43.28
2023-03-13T13:14:28.988Z,42.66
2023-03-13T13:17:01.431Z,42.00
2023-03-13T13:19:42.588Z,42.35
2023-03-13T13:22:39.185Z,43.29
2023-03-13T13:25:10.670Z,42.79
2023-03-13T13:27:39.256Z,41.50
2023-03-13T13:30:17.362Z,41.62
2023-03-13T13:32:50.705Z,41.83
2023-03-13T13:35:35.058Z,42.48
2023-03-13T13:38:19.012Z,41.93
2023-03-13T13:41:11.567Z,42.77
2023-03-13T13:43:43.604Z,42.62
2023-03-13T13:46:33.584Z,43.74
2023-03-13T13:49:06.119Z,43.01
2023-03-13T13:51:40.059Z,42.95
2023-03-13T13:54:18.573Z,42.66
2023-03-13T13:56:52.706Z,43.53
2023-03-13T13:59:21.444Z,43.33
2023-03-13T14:02:13.950Z,43.29
2023-03-13T14:04:48.844Z,43.32
2023-03-13T14:07:45.100Z,43.22
2023-03-13T14:10:30.508Z,42.81
2023-03-13T14:13:01.070Z,42.13
2023-03-13T14:15:31.853Z,42.15
2023-03-13T14:18:13.863Z,43.02
2023-03-13T14:20:54.871Z,43.11
2023-03-13T14:23:42.791Z,43.66
2023-03-13T14:26:28.132Z,44.18
2023-03-13T14:29:03.602Z,45.11
2023-03-13T14:31:37.891Z,44.30
2023-03-13T14:34:10.277Z,44.95
2023-03-13T14:36:52.252Z,45.85
2023-03-13T14:39:33.392Z,44.76
2023-03-13T14:42:22.576Z,44.16
2023-03-13T14:44:54.235Z,44.55
2023-03-13T14:47:31.032Z,45.12
2023-03-13T14:50:05.069Z,45.17
2023-03-13T14:52:35.392Z,45.07
2023-03-13T14:55:26.198Z,45.41
2023-03-13T14:58:07.867Z,46.54
2023-03-13T15:00:39.436Z,47.37
2023-03-13T15:03:25.831Z,46.23
2023-03-13T15:06:08.584Z,45.15
2023-03-13T15:08:43.062Z,44.71
2023-03-13T15:11:22.400Z,44.32
2023-03-13T15:13:51.492Z,44.72
2023-03-13T15:16:22.029Z,45.80
2023-03-13T15:18:51.926Z,45.82
2023-03-13T15:21:38.583Z,45.77
2023-03-13T15:24:15.734Z,46.26
2023-03-13T15:26:44.794Z,46.54
2023-03-13T15:29:14.401Z,46.65
2023-03-13T15:31:43.160Z,46.29
2023-03-13T15:34:14.695Z,46.34
2023-03-13T15:36:43.147Z,47.00
2023-03-13T15:39:19.550Z,46.68
2023-03-13T15:41:47.898Z,46.39
2023-03-13T15:44:16.493Z,46.75
2023-03-13T15:46:46.653Z,46.96
2023-03-13T15:49:15.333Z,47.99
2023-03-13T15:51:44.407Z,48.39
2023-03-13T15:54:13.107Z,48.62
2023-03-13T15:56:42.527Z,48.67
2023-03-13T15:59:12.896Z,48.80
2023-03-13T16:01:43.038Z,49.37
2023-03-13T16:04:12.251Z,48.37
2023-03-13T16:06:41.165Z,48.79
2023-03-13T16:09:12.590Z,50.40
2023-03-13T16:11:41.485Z,51.80
2023-03-13T16:14:10.128Z,55.34
2023-03-13T16:16:39.739Z,59.72
2023-03-13T16:19:10.760Z,62.76
2023-03-13T16:21:43.466Z,63.18
2023-03-13T16:24:11.898Z,64.04
2023-03-13T16:26:41.061Z,67.07
2023-03-13T16:29:15.490Z,71.08
2023-03-13T16:31:43.763Z,72.33
2023-03-13T16:34:12.513Z,70.83
2023-03-13T16:36:40.724Z,72.30
2023-03-13T16:39:17.031Z,73.36
2023-03-13T16:41:45.601Z,75.70
2023-03-13T16:44:14.678Z,77.79
2023-03-13T16:46:59.071Z,77.48
2023-03-13T16:49:32.838Z,78.61
2023-03-13T16:52:01.392Z,78.20
2023-03-13T16:54:29.800Z,80.73
2023-03-13T16:56:59.315Z,81.88
2023-03-13T16:59:28.623Z,81.92
2023-03-13T17:01:56.791Z,83.61
2023-03-13T17:04:25.239Z,87.17
2023-03-13T17:06:53.653Z,93.02
2023-03-13T17:09:22.230Z,97.47
2023-03-13T17:11:50.513Z,98.73
2023-03-13T17:14:18.729Z,99.80
2023-03-13T17:16:47.771Z,99.12
2023-03-13T17:19:17.262Z,100.00
2023-03-13T17:21:45.874Z,100.00
2023-03-13T17:24:14.523Z,100.00
2023-03-13T17:26:42.763Z,100.00
2023-03-13T17:29:17.276Z,100.00
2023-03-13T17:31:46.164Z,100.00
2023-03-13T17:34:15.705Z,100.00
2023-03-13T17:36:45.696Z,100.00
2023-03-13T17:39:15.984Z,100.00
2023-03-13T17:41:44.161Z,100.00
2023-03-13T17:44:12.607Z,100.00
2023-03-13T17:46:44.434Z,100.00
2023-03-13T17:49:14.755Z,100.00
2023-03-13T17:51:46.366Z,100.00
2023-03-13T17:54:16.040Z,100.00
2023-03-13T17:56:45.862Z,100.00
2023-03-13T17:59:17.832Z,100.00
2023-03-13T18:01:46.954Z,100.00
2023-03-13T18:04:15.558Z,100.00
2023-03-13T18:06:46.498Z,100.00
2023-03-13T18:09:21.150Z,100.00
2023-03-13T18:11:50.246Z,100.00
2023-03-13T18:14:18.808Z,100.00
2023-03-13T18:16:50.443Z,100.00
2023-03-13T18:19:22.697Z,100.00
2023-03-13T18:21:55.845Z,100.00
2023-03-13T18:24:25.252Z,100.00
2023-03-13T18:26:53.597Z,100.00
2023-03-13T18:29:27.268Z,100.00
2023-03-13T18:31:58.904Z,100.00
2023-03-13T18:34:29.004Z,100.00
2023-03-13T18:37:03.888Z,100.00
2023-03-13T18:39:33.165Z,100.00
2023-03-13T18:42:02.328Z,100.00
2023-03-13T18:44:30.555Z,100.00
2023-03-13T18:46:58.665Z,100.00
2023-03-13T18:49:27.285Z,100.00
2023-03-13T18:51:55.824Z,100.00
2023-03-13T18:54:23.941Z,100.00
2023-03-13T18:56:52.412Z,100.00
2023-03-13T18:59:22.506Z,100.00
2023-03-13T19:01:51.365Z,100.00
2023-03-13T19:04:20.335Z,100.00
2023-03-13T19:06:48.888Z,100.00
2023-03-13T19:09:42.184Z,100.00
2023-03-13T19:12:13.162Z,100.00
2023-03-13T19:14:42.102Z,100.00
2023-03-13T19:17:20.574Z,100.00
2023-03-13T19:19:48.892Z,100.00
2023-03-13T19:22:17.600Z,100.00
2023-03-13T19:24:46.274Z,100.00
2023-03-13T19:27:15.025Z,100.00
2023-03-13T19:29:44.128Z,100.00
2023-03-13T19:32:14.907Z,100.00
2023-03-13T19:34:43.690Z,100.00
2023-03-13T19:37:14.443Z,100.00
2023-03-13T19:39:43.090Z,100.00
2023-03-13T19:42:12.094Z,100.00
2023-03-13T19:44:41.617Z,100.00
2023-03-13T19:47:15.955Z,100.00
2023-03-13T19:49:45.845Z,100.00
2023-03-13T19:52:14.496Z,100.00
2023-03-13T19:54:42.642Z,100.00
2023-03-13T19:57:12.331Z,100.00
2023-03-13T19:59:41.490Z,100.00
2023-03-13T20:02:11.727Z,100.00
2023-03-13T20:04:42.768Z,100.00
2023-03-13T20:07:11.493Z,100.00
2023-03-13T20:09:39.712Z,100.00
2023-03-13T20:12:08.129Z,100.00
2023-03-13T20:14:36.237Z,100.00
2023-03-13T20:17:04.947Z,100.00
2023-03-13T20:19:33.846Z,100.00
2023-03-13T20:22:05.411Z,100.00
2023-03-13T20:24:33.751Z,100.00
2023-03-13T20:27:04.368Z,100.00
2023-03-13T20:29:33.992Z,100.00
2023-03-13T20:32:04.947Z,100.00
2023-03-13T20:34:34.651Z,100.00
2023-03-13T20:37:04.061Z,100.00
2023-03-13T20:39:34.282Z,100.00
2023-03-13T20:42:03.428Z,100.00
2023-03-13T20:44:31.856Z,100.00
2023-03-13T20:47:00.606Z,100.00
2023-03-13T20:49:29.230Z,100.00
2023-03-13T20:51:57.550Z,100.00
2023-03-13T20:54:26.050Z,100.00
2023-03-13T20:56:55.101Z,100.00
2023-03-13T20:59:23.346Z,100.00
2023-03-13T21:01:51.631Z,100.00
2023-03-13T21:04:19.933Z,100.00
2023-03-13T21:06:50.250Z,100.00
2023-03-13T21:09:18.610Z,100.00
2023-03-13T21:11:46.975Z,100.00
2023-03-13T21:14:15.388Z,100.00
2023-03-13T21:16:43.489Z,100.00
2023-03-13T21:19:11.597Z,100.00
2023-03-13T21:21:40.330Z,100.00
2023-03-13T21:24:08.823Z,100.00
2023-03-13T21:26:37.677Z,100.00
2023-03-13T21:29:06.517Z,100.00
2023-03-13T21:31:36.089Z,100.00
2023-03-13T21:34:05.721Z,100.00
2023-03-13T21:36:34.180Z,100.00
2023-03-13T21:39:02.953Z,100.00
2023-03-13T21:41:33.668Z,100.00
2023-03-13T21:44:03.094Z,100.00
2023-03-13T21:46:33.399Z,100.00
2023-03-13T21:49:02.507Z,100.00
2023-03-13T21:51:30.680Z,100.00
2023-03-13T21:53:58.678Z,100.00
2023-03-13T21:56:26.777Z,100.00
2023-03-13T21:58:54.976Z,100.00
2023-03-13T22:01:22.948Z,100.00
2023-03-13T22:03:51.046Z,100.00
2023-03-13T22:06:22.701Z,100.00
2023-03-13T22:08:51.841Z,100.00
2023-03-13T22:11:20.012Z,100.00
2023-03-13T22:13:48.104Z,100.00
2023-03-13T22:16:16.097Z,100.00
2023-03-13T22:18:44.212Z,100.00
2023-03-13T22:21:12.400Z,100.00
2023-03-13T22:23:40.547Z,100.00
2023-03-13T22:26:11.373Z,100.00
2023-03-13T22:28:40.184Z,100.00
2023-03-13T22:31:11.264Z,100.00
2023-03-13T22:33:39.304Z,100.00
2023-03-13T22:36:09.232Z,100.00
2023-03-13T22:38:39.168Z,100.00
2023-03-13T22:41:11.845Z,100.00
2023-03-13T22:43:40.121Z,100.00
2023-03-13T22:46:09.370Z,100.00
2023-03-13T22:48:37.762Z,100.00
2023-03-13T22:51:14.445Z,100.00
2023-03-13T22:53:43.147Z,100.00
2023-03-13T22:56:12.521Z,100.00
2023-03-13T22:58:41.879Z,100.00
2023-03-13T23:01:12.853Z,100.00
2023-03-13T23:03:41.600Z,100.00
2023-03-13T23:06:15.755Z,100.00
2023-03-13T23:08:44.650Z,100.00
2023-03-13T23:11:13.086Z,100.00
2023-03-13T23:13:41.202Z,100.00
2023-03-13T23:16:11.993Z,100.00
2023-03-13T23:18:41.936Z,100.00
2023-03-13T23:21:13.465Z,100.00
2023-03-13T23:23:42.068Z,100.00
2023-03-13T23:26:13.203Z,100.00
2023-03-13T23:28:41.399Z,100.00
2023-03-13T23:31:14.981Z,100.00
2023-03-13T23:33:43.074Z,100.00
2023-03-13T23:36:13.945Z,100.00
2023-03-13T23:38:42.685Z,100.00
2023-03-13T23:41:13.361Z,100.00
2023-03-13T23:43:41.707Z,100.00
2023-03-13T23:46:19.087Z,100.00
2023-03-13T23:48:47.411Z,100.00
2023-03-13T23:51:15.546Z,100.00
2023-03-13T23:53:44.331Z,100.00
2023-03-13T23:56:12.618Z,100.00
2023-03-13T23:58:41.668Z,100.00
